Terminal Aerodrome Forecast
Issued by NWS

Home | Current Version | Previous Version | Text Only | Print | Product List | Glossary On
Versions: 1 2 3 4 5 6 7 8 9 10 11 12
016
FTUS45 KABQ 060520
TAFLVS
TAF
KLVS 060520Z 0606/0706 18010KT P6SM SCT250
     FM061600 19015G24KT P6SM FEW120 SCT250
     FM062000 19025G35KT P6SM FEW130
     FM070200 18015G25KT P6SM FEW130=

USA.gov is the U.S. government's official web portal to all federal, state and local government web resources and services.